Time;durP1;ratioP1;P1;durP2;ratioP2;P2;SDS_P1;SDS_P2;PMS_P1;PMS_P2;Temp;Humidity;BMP_temperature;BMP_pressure;BME280_temperature;BME280_humidity;BME280_pressure;Samples;Min_cycle;Max_cycle;Signal;HPM_P1;HPM_P2
2021/04/15 00:01:41;;;;;;;6.80;3.67;;;5.10;99.90;;;;;;5072786;28;20032;-66
2021/04/15 00:04:09;;;;;;;5.05;3.72;;;5.10;99.90;;;;;;5070959;28;20152;-66
2021/04/15 00:06:35;;;;;;;11.07;4.25;;;5.10;99.90;;;;;;5072073;28;20040;-66
2021/04/15 00:09:06;;;;;;;5.45;3.63;;;5.00;99.90;;;;;;5063827;28;20458;-66
2021/04/15 00:11:33;;;;;;;3.88;3.38;;;5.10;99.90;;;;;;5072514;28;20459;-66
2021/04/15 00:14:00;;;;;;;6.85;3.47;;;5.10;99.90;;;;;;5067519;28;20067;-66
2021/04/15 00:16:29;;;;;;;8.68;3.33;;;5.00;99.90;;;;;;5074582;28;20028;-67
2021/04/15 00:18:55;;;;;;;3.95;2.88;;;5.00;99.90;;;;;;5072834;28;20029;-66
2021/04/15 00:21:22;;;;;;;9.02;3.97;;;5.00;99.90;;;;;;5066091;28;20024;-66
2021/04/15 00:23:48;;;;;;;7.00;4.00;;;5.00;99.90;;;;;;5066505;28;20075;-66
2021/04/15 00:26:15;;;;;;;7.80;3.60;;;5.00;99.90;;;;;;5075569;28;20631;-66
2021/04/15 00:28:41;;;;;;;6.28;3.53;;;4.90;99.90;;;;;;5071407;28;20108;-66
2021/04/15 00:31:08;;;;;;;9.93;4.28;;;4.90;99.90;;;;;;5075173;28;20115;-66
2021/04/15 00:33:34;;;;;;;9.35;4.40;;;4.80;99.90;;;;;;5070404;28;20025;-66
2021/04/15 00:36:00;;;;;;;9.90;3.75;;;4.70;99.90;;;;;;5075682;28;20032;-66
2021/04/15 00:38:27;;;;;;;7.68;3.97;;;4.70;99.90;;;;;;5070886;28;20464;-66
2021/04/15 00:40:54;;;;;;;8.07;3.88;;;4.80;99.90;;;;;;5072252;28;20104;-66
2021/04/15 00:43:23;;;;;;;12.20;3.90;;;4.70;99.90;;;;;;5070819;28;20056;-66
2021/04/15 00:45:49;;;;;;;5.45;3.75;;;4.70;99.90;;;;;;5070899;28;20025;-66
2021/04/15 00:48:36;;;;;;;7.45;3.50;;;4.70;99.90;;;;;;5069391;28;20035;-66
2021/04/15 00:51:32;;;;;;;11.07;4.50;;;4.60;99.90;;;;;;5070518;28;20032;-66
2021/04/15 00:54:05;;;;;;;8.55;4.07;;;4.60;99.90;;;;;;5072155;28;20035;-66
2021/04/15 00:56:31;;;;;;;8.13;4.50;;;4.60;99.90;;;;;;5068421;28;20132;-66
2021/04/15 00:58:58;;;;;;;12.00;4.53;;;4.60;99.90;;;;;;5071887;28;20064;-67
2021/04/15 01:01:24;;;;;;;9.43;4.82;;;4.70;99.90;;;;;;5072427;28;20028;-67
2021/04/15 01:03:50;;;;;;;6.72;3.75;;;4.60;99.90;;;;;;5071855;28;20020;-66
2021/04/15 01:06:16;;;;;;;9.05;3.90;;;4.70;99.90;;;;;;5073315;28;20021;-67
2021/04/15 01:08:42;;;;;;;9.45;3.80;;;4.60;99.90;;;;;;5072415;28;20060;-67
2021/04/15 01:12:02;;;;;;;7.30;3.80;;;4.60;99.90;;;;;;5074352;28;20035;-67
2021/04/15 01:14:49;;;;;;;11.57;4.57;;;4.60;99.90;;;;;;5082795;28;20036;-67
2021/04/15 01:17:33;;;;;;;8.05;4.75;;;4.60;99.90;;;;;;5066327;28;20393;-67
2021/04/15 01:20:27;;;;;;;8.15;4.68;;;4.60;99.90;;;;;;5070023;28;20071;-66
2021/04/15 01:23:19;;;;;;;10.55;4.40;;;4.60;99.90;;;;;;5064459;28;20020;-66
2021/04/15 01:26:15;;;;;;;7.20;3.45;;;4.60;99.90;;;;;;5069546;28;20098;-66
2021/04/15 01:29:10;;;;;;;5.97;3.90;;;4.60;99.90;;;;;;5071268;28;20024;-66
2021/04/15 01:31:40;;;;;;;8.93;4.50;;;4.70;99.90;;;;;;5067637;28;20063;-66
2021/04/15 01:34:13;;;;;;;6.20;4.78;;;4.60;99.90;;;;;;5068366;28;20485;-66
2021/04/15 01:37:02;;;;;;;10.13;4.05;;;4.60;99.90;;;;;;5067965;28;20031;-66
2021/04/15 01:39:37;;;;;;;10.75;5.10;;;4.70;99.90;;;;;;5060165;28;20033;-66
2021/04/15 01:42:12;;;;;;;10.40;4.55;;;4.60;99.90;;;;;;5075907;28;20052;-66
2021/04/15 01:44:54;;;;;;;8.50;4.47;;;4.70;99.90;;;;;;5070675;28;20024;-66
2021/04/15 01:47:52;;;;;;;7.43;4.15;;;4.70;99.90;;;;;;5072193;28;20510;-66
2021/04/15 01:50:23;;;;;;;5.70;3.75;;;4.70;99.90;;;;;;5071116;28;20412;-66
2021/04/15 01:52:52;;;;;;;6.70;4.22;;;4.60;99.90;;;;;;5066981;28;20024;-66
2021/04/15 01:55:29;;;;;;;9.65;3.80;;;4.60;99.90;;;;;;5077180;28;20039;-66
2021/04/15 01:58:07;;;;;;;6.60;4.20;;;4.60;99.90;;;;;;5076315;28;20041;-66
2021/04/15 02:00:36;;;;;;;9.15;5.03;;;4.60;99.90;;;;;;5072464;28;20025;-66
2021/04/15 02:03:10;;;;;;;8.38;4.03;;;4.60;99.90;;;;;;5076412;28;20666;-66
2021/04/15 02:05:39;;;;;;;5.55;4.40;;;4.60;99.90;;;;;;5070322;28;20028;-66
2021/04/15 02:08:12;;;;;;;7.95;5.00;;;4.60;99.90;;;;;;5069672;28;20087;-66
2021/04/15 02:10:47;;;;;;;8.00;3.90;;;4.60;99.90;;;;;;5073247;28;20037;-66
2021/04/15 02:13:14;;;;;;;7.68;3.88;;;4.40;99.90;;;;;;5071545;28;20035;-66
2021/04/15 02:15:48;;;;;;;10.23;4.50;;;4.40;99.90;;;;;;5071752;28;20028;-66
2021/04/15 02:18:22;;;;;;;8.27;4.00;;;4.40;99.90;;;;;;5077272;28;20388;-66
2021/04/15 02:20:51;;;;;;;8.68;4.00;;;4.40;99.90;;;;;;5072581;28;20028;-66
2021/04/15 02:23:23;;;;;;;13.52;4.63;;;4.40;99.90;;;;;;5064731;28;20020;-66
2021/04/15 02:25:54;;;;;;;5.65;4.53;;;4.40;99.90;;;;;;5069707;28;20033;-66
2021/04/15 02:28:31;;;;;;;9.20;5.00;;;4.30;99.90;;;;;;5072614;28;20024;-66
2021/04/15 02:31:17;;;;;;;13.32;5.72;;;4.30;99.90;;;;;;5073425;28;20036;-66
2021/04/15 02:34:02;;;;;;;7.25;4.80;;;4.30;99.90;;;;;;5073677;28;20009;-66
2021/04/15 02:36:41;;;;;;;10.77;5.43;;;4.30;99.90;;;;;;5064980;28;20388;-66
2021/04/15 02:39:21;;;;;;;9.00;5.40;;;4.30;99.90;;;;;;5074200;28;20031;-66
2021/04/15 02:41:49;;;;;;;8.93;5.18;;;4.30;99.90;;;;;;5073172;28;20047;-66
2021/04/15 02:44:26;;;;;;;13.98;5.78;;;4.30;99.90;;;;;;5073741;28;20434;-66
2021/04/15 02:47:05;;;;;;;13.90;5.35;;;4.30;99.90;;;;;;5073961;28;20024;-66
2021/04/15 02:49:32;;;;;;;10.77;5.72;;;4.30;99.90;;;;;;5073581;28;20046;-66
2021/04/15 02:52:11;;;;;;;9.23;6.25;;;4.30;99.90;;;;;;5068756;28;20052;-66
2021/04/15 02:54:40;;;;;;;9.95;5.70;;;4.20;99.90;;;;;;5075469;28;20035;-66
2021/04/15 02:57:12;;;;;;;12.27;5.45;;;4.30;99.90;;;;;;5071245;28;20029;-66
2021/04/15 02:59:40;;;;;;;11.32;5.88;;;4.20;99.90;;;;;;5062891;28;20021;-66
2021/04/15 03:02:13;;;;;;;11.57;5.30;;;4.20;99.90;;;;;;5069169;28;20032;-66
2021/04/15 03:04:42;;;;;;;9.15;5.60;;;4.20;99.90;;;;;;5068962;28;20137;-66
2021/04/15 03:07:10;;;;;;;7.78;4.75;;;4.20;99.90;;;;;;5074087;28;20017;-66
2021/04/15 03:09:38;;;;;;;15.32;5.68;;;4.10;99.90;;;;;;5074869;28;20039;-66
2021/04/15 03:12:14;;;;;;;11.43;5.88;;;4.10;99.90;;;;;;5071108;28;20032;-66
2021/04/15 03:15:11;;;;;;;9.85;4.85;;;4.20;99.90;;;;;;5068624;28;20387;-66
2021/04/15 03:17:42;;;;;;;10.25;5.15;;;4.10;99.90;;;;;;5076083;28;20036;-66
2021/04/15 03:20:14;;;;;;;10.90;6.18;;;4.10;99.90;;;;;;5068094;28;20500;-66
2021/04/15 03:23:04;;;;;;;10.15;5.65;;;4.10;99.90;;;;;;5077967;28;20024;-67
2021/04/15 03:25:30;;;;;;;13.77;6.07;;;4.10;99.90;;;;;;5063615;28;20029;-67
2021/04/15 03:28:14;;;;;;;10.48;6.53;;;4.10;99.90;;;;;;5073704;28;20020;-66
2021/04/15 03:30:49;;;;;;;15.75;5.60;;;4.10;99.90;;;;;;5071312;28;20029;-66
2021/04/15 03:33:32;;;;;;;11.80;6.00;;;4.00;99.90;;;;;;5068171;28;20029;-67
2021/04/15 03:36:03;;;;;;;13.13;6.20;;;3.90;99.90;;;;;;5073747;28;20031;-67
2021/04/15 03:38:44;;;;;;;9.65;5.38;;;4.00;99.90;;;;;;5073732;28;20032;-66
2021/04/15 03:41:13;;;;;;;12.52;6.85;;;3.90;99.90;;;;;;5064801;28;20082;-66
2021/04/15 03:43:47;;;;;;;8.98;5.55;;;3.80;99.90;;;;;;5076244;28;20024;-67
2021/04/15 03:46:13;;;;;;;13.88;5.90;;;3.90;99.90;;;;;;5071340;28;20379;-66
2021/04/15 03:48:43;;;;;;;8.88;5.55;;;3.90;99.90;;;;;;5066851;28;20469;-67
2021/04/15 03:51:22;;;;;;;12.82;6.35;;;3.90;99.90;;;;;;5071989;28;20552;-67
2021/04/15 03:53:58;;;;;;;13.40;6.20;;;3.90;99.90;;;;;;5074087;28;20028;-67
2021/04/15 03:56:29;;;;;;;11.25;5.57;;;3.90;99.90;;;;;;5072157;28;20389;-67
2021/04/15 03:59:09;;;;;;;12.40;5.82;;;3.80;99.90;;;;;;5070523;28;20029;-67
2021/04/15 04:01:40;;;;;;;8.95;5.80;;;3.80;99.90;;;;;;5076290;28;20024;-67
2021/04/15 04:04:31;;;;;;;10.07;5.82;;;3.80;99.90;;;;;;5070746;28;20388;-66
2021/04/15 04:07:01;;;;;;;11.65;5.90;;;3.80;99.90;;;;;;5065881;28;20017;-67
2021/04/15 04:09:37;;;;;;;16.67;6.57;;;3.70;99.90;;;;;;5069951;28;20060;-66
2021/04/15 04:12:11;;;;;;;9.77;5.85;;;3.80;99.90;;;;;;5067224;28;20063;-67
2021/04/15 04:14:55;;;;;;;14.88;5.55;;;3.80;99.90;;;;;;5071045;28;20031;-67
2021/04/15 04:17:44;;;;;;;15.82;6.28;;;3.80;99.90;;;;;;5065231;28;20040;-67
2021/04/15 04:20:12;;;;;;;13.95;6.70;;;3.80;99.90;;;;;;5063330;28;20381;-66
2021/04/15 04:22:44;;;;;;;9.35;6.07;;;3.70;99.90;;;;;;5069856;28;20358;-67
2021/04/15 04:25:42;;;;;;;13.80;6.30;;;3.70;99.90;;;;;;5072091;28;20029;-67
2021/04/15 04:28:22;;;;;;;13.20;6.55;;;3.60;99.90;;;;;;5074835;28;20048;-66
2021/04/15 04:31:03;;;;;;;9.15;6.32;;;3.60;99.90;;;;;;5063101;28;20029;-67
2021/04/15 04:33:55;;;;;;;13.13;6.10;;;3.50;99.90;;;;;;5066987;28;20033;-66
2021/04/15 04:36:23;;;;;;;10.00;6.20;;;3.50;99.90;;;;;;5073576;28;20036;-66
2021/04/15 04:38:53;;;;;;;11.50;6.65;;;3.50;99.90;;;;;;5069369;28;20025;-66
2021/04/15 04:41:28;;;;;;;11.70;7.30;;;3.40;99.90;;;;;;5064760;28;20012;-66
2021/04/15 04:44:03;;;;;;;11.65;6.55;;;3.50;99.90;;;;;;5083381;28;20453;-66
2021/04/15 04:46:37;;;;;;;15.05;6.80;;;3.50;99.90;;;;;;5072468;28;20111;-66
2021/04/15 04:49:18;;;;;;;13.65;6.68;;;3.50;99.90;;;;;;5069597;28;20500;-66
2021/04/15 04:51:47;;;;;;;13.45;7.25;;;3.50;99.90;;;;;;5065764;28;20425;-66
2021/04/15 04:54:16;;;;;;;10.02;6.55;;;3.50;99.90;;;;;;5069939;28;20050;-66
2021/04/15 04:56:55;;;;;;;16.08;6.88;;;3.50;99.90;;;;;;5067485;28;20359;-66
2021/04/15 04:59:28;;;;;;;13.07;6.70;;;3.50;99.90;;;;;;5067384;28;20469;-66
2021/04/15 05:01:54;;;;;;;14.75;7.28;;;3.50;99.90;;;;;;5069115;28;20156;-66
2021/04/15 05:04:21;;;;;;;13.73;8.55;;;3.40;99.90;;;;;;5069605;28;20381;-66
2021/04/15 05:06:48;;;;;;;11.57;7.10;;;3.50;99.90;;;;;;5073210;28;20028;-66
2021/04/15 05:09:25;;;;;;;13.63;8.43;;;3.40;99.90;;;;;;5063668;28;20066;-66
2021/04/15 05:11:52;;;;;;;16.10;7.13;;;3.30;99.90;;;;;;5070742;28;20021;-66
2021/04/15 05:14:29;;;;;;;13.05;6.95;;;3.30;99.90;;;;;;5065600;28;20024;-66
2021/04/15 05:17:06;;;;;;;13.32;6.82;;;3.40;99.90;;;;;;5068364;28;20040;-67
2021/04/15 05:19:35;;;;;;;13.25;7.15;;;3.40;99.90;;;;;;5072179;28;20028;-66
2021/04/15 05:22:05;;;;;;;10.55;6.78;;;3.60;99.90;;;;;;5065744;28;20859;-66
2021/04/15 05:24:49;;;;;;;9.40;5.90;;;3.70;99.90;;;;;;5072386;28;20021;-66
2021/04/15 05:27:20;;;;;;;11.82;6.57;;;3.60;99.90;;;;;;5061068;28;20032;-66
2021/04/15 05:29:48;;;;;;;15.45;8.15;;;3.70;99.90;;;;;;5070794;28;20033;-66
2021/04/15 05:32:17;;;;;;;16.30;7.47;;;3.70;99.90;;;;;;5064263;28;20082;-66
2021/04/15 05:34:47;;;;;;;14.40;7.30;;;3.70;99.90;;;;;;5070354;28;20023;-66
2021/04/15 05:37:17;;;;;;;16.42;8.05;;;3.70;99.90;;;;;;5068149;28;20029;-66
2021/04/15 05:39:43;;;;;;;10.45;7.13;;;3.80;99.90;;;;;;5069408;28;20028;-66
2021/04/15 05:42:21;;;;;;;12.25;7.00;;;3.80;99.90;;;;;;5061876;28;20104;-66
2021/04/15 05:44:54;;;;;;;14.63;7.20;;;3.80;99.90;;;;;;5071103;28;20035;-66
2021/04/15 05:47:28;;;;;;;13.10;6.65;;;3.80;99.90;;;;;;5067977;28;20107;-66
2021/04/15 05:50:14;;;;;;;10.55;6.70;;;3.80;99.90;;;;;;5074838;28;20385;-68
2021/04/15 05:53:11;;;;;;;14.65;7.47;;;3.80;99.90;;;;;;5071565;28;20036;-68
2021/04/15 05:55:42;;;;;;;13.65;8.35;;;4.00;99.90;;;;;;5070313;28;20394;-68
2021/04/15 05:58:34;;;;;;;13.77;7.63;;;4.10;99.90;;;;;;5069268;28;20028;-68
2021/04/15 06:01:06;;;;;;;16.65;8.13;;;4.20;99.90;;;;;;5065521;28;20025;-68
2021/04/15 06:03:42;;;;;;;18.40;9.32;;;4.30;99.90;;;;;;5070507;28;20052;-68
2021/04/15 06:06:12;;;;;;;14.93;8.13;;;4.30;99.90;;;;;;5067025;28;20024;-68
2021/04/15 06:08:42;;;;;;;13.15;7.43;;;4.40;99.90;;;;;;5066424;28;20143;-69
2021/04/15 06:11:39;;;;;;;12.48;7.95;;;4.50;99.90;;;;;;5073421;28;20045;-68
2021/04/15 06:14:29;;;;;;;16.13;7.97;;;4.60;99.90;;;;;;5068814;28;20473;-68
2021/04/15 06:17:12;;;;;;;13.05;7.13;;;4.80;99.90;;;;;;5066591;28;20029;-68
2021/04/15 06:19:43;;;;;;;14.98;7.97;;;4.80;99.90;;;;;;5069039;28;20028;-68
2021/04/15 06:22:15;;;;;;;16.25;8.82;;;4.90;99.90;;;;;;5073034;28;20509;-68
2021/04/15 06:24:42;;;;;;;;;;;5.00;99.90;;;;;;5075348;28;20037;-68
2021/04/15 06:27:09;;;;;;;16.58;7.20;;;5.10;99.90;;;;;;5071175;28;19912;-68
2021/04/15 06:29:56;;;;;;;15.55;7.93;;;5.20;99.90;;;;;;5068670;28;20039;-67
2021/04/15 06:32:38;;;;;;;13.45;7.00;;;5.20;99.90;;;;;;5072101;28;20033;-66
2021/04/15 06:35:11;;;;;;;15.70;6.90;;;5.30;99.90;;;;;;5063494;28;20028;-66
2021/04/15 06:37:47;;;;;;;13.20;7.07;;;5.30;99.90;;;;;;5068574;28;20029;-67
2021/04/15 06:40:40;;;;;;;17.35;6.80;;;5.30;99.90;;;;;;5062125;28;20048;-66
2021/04/15 06:43:35;;;;;;;12.15;6.82;;;5.30;99.90;;;;;;5075907;28;20032;-66
2021/04/15 06:46:09;;;;;;;10.48;6.70;;;5.50;99.90;;;;;;5069820;28;20115;-67
2021/04/15 06:49:05;;;;;;;17.38;7.53;;;5.60;99.90;;;;;;5074010;28;20032;-67
2021/04/15 06:51:45;;;;;;;11.32;6.68;;;5.70;99.90;;;;;;5073767;28;20040;-67
2021/04/15 06:54:42;;;;;;;11.45;6.50;;;5.80;99.90;;;;;;5076736;28;20031;-67
2021/04/15 06:57:24;;;;;;;11.77;7.28;;;5.90;99.90;;;;;;5066457;28;20090;-67
2021/04/15 07:00:10;;;;;;;;;;;6.00;99.90;;;;;;5072081;28;20043;-67
2021/04/15 07:02:48;;;;;;;11.60;6.63;;;6.20;99.90;;;;;;5072136;28;19916;-67
2021/04/15 07:05:18;;;;;;;15.07;8.35;;;6.30;99.90;;;;;;5068941;28;20111;-67
2021/04/15 07:07:58;;;;;;;12.32;6.38;;;6.40;99.90;;;;;;5065506;28;20114;-67
2021/04/15 07:10:50;;;;;;;13.20;6.20;;;6.40;99.90;;;;;;5070659;28;20041;-66
2021/04/15 07:13:46;;;;;;;7.93;5.45;;;6.50;99.90;;;;;;5073665;28;20060;-67
2021/04/15 07:16:33;;;;;;;15.40;6.63;;;6.60;99.90;;;;;;5070264;28;20025;-67
2021/04/15 07:19:22;;;;;;;12.05;3.92;;;6.70;99.90;;;;;;5073372;28;20041;-67
2021/04/15 07:22:18;;;;;;;7.43;4.30;;;6.70;99.90;;;;;;5070628;28;20028;-67
2021/04/15 07:25:23;;;;;;;13.25;5.68;;;6.80;99.90;;;;;;5064355;28;20024;-66
2021/04/15 07:28:19;;;;;;;7.70;4.88;;;6.80;99.90;;;;;;5067581;28;20029;-67
2021/04/15 07:31:05;;;;;;;7.75;4.38;;;7.00;99.90;;;;;;5072277;28;20503;-66
2021/04/15 07:33:59;;;;;;;11.23;4.68;;;7.10;99.90;;;;;;5066903;28;20037;-67
2021/04/15 07:36:36;;;;;;;9.00;4.15;;;7.20;99.90;;;;;;5070750;28;20052;-68
2021/04/15 07:39:47;;;;;;;7.53;5.22;;;7.20;99.90;;;;;;5072335;28;20569;-68
2021/04/15 07:42:13;;;;;;;10.32;4.47;;;7.20;99.90;;;;;;5070852;28;20082;-67
2021/04/15 07:44:49;;;;;;;7.85;4.82;;;7.20;99.90;;;;;;5049638;28;20032;-68
2021/04/15 07:47:30;;;;;;;9.45;3.97;;;7.20;99.90;;;;;;5064287;28;20111;-67
2021/04/15 07:50:18;;;;;;;7.55;4.22;;;7.20;99.90;;;;;;5070370;28;20040;-67
2021/04/15 07:53:29;;;;;;;9.88;3.70;;;7.20;99.90;;;;;;5068844;28;20508;-67
2021/04/15 07:56:23;;;;;;;9.68;3.92;;;7.20;99.90;;;;;;5070018;28;20374;-68
2021/04/15 07:58:57;;;;;;;7.85;4.00;;;7.30;99.90;;;;;;5070005;28;20070;-67
2021/04/15 08:01:41;;;;;;;8.63;4.80;;;7.20;99.90;;;;;;5067619;28;20033;-68
2021/04/15 08:04:35;;;;;;;11.55;3.85;;;7.30;99.90;;;;;;5068834;28;20029;-68
2021/04/15 08:07:25;;;;;;;6.85;4.07;;;7.30;99.90;;;;;;5069956;28;20032;-67
2021/04/15 08:09:57;;;;;;;6.80;3.30;;;7.20;99.90;;;;;;5069268;28;20040;-68
2021/04/15 08:12:43;;;;;;;5.85;3.58;;;7.30;99.90;;;;;;5071881;28;20028;-68
2021/04/15 08:15:46;;;;;;;7.38;3.03;;;7.30;99.90;;;;;;5067278;28;20025;-67
2021/04/15 08:18:19;;;;;;;;;;;7.40;99.90;;;;;;5072359;28;20485;-68
2021/04/15 08:21:05;;;;;;;6.13;3.03;;;7.60;99.90;;;;;;5073970;28;19912;-68
2021/04/15 08:24:01;;;;;;;7.20;3.33;;;7.70;99.90;;;;;;5075228;28;20537;-68
2021/04/15 08:26:47;;;;;;;8.45;3.15;;;7.70;99.90;;;;;;5072024;28;20036;-68
2021/04/15 08:29:31;;;;;;;4.68;2.97;;;7.90;99.90;;;;;;5069091;28;20027;-68
2021/04/15 08:32:12;;;;;;;6.50;2.30;;;7.80;99.90;;;;;;5070696;28;20075;-67
2021/04/15 08:34:56;;;;;;;6.70;2.45;;;8.10;99.90;;;;;;5072237;28;20055;-68
2021/04/15 08:37:40;;;;;;;4.40;2.30;;;8.20;99.90;;;;;;5063105;28;20022;-68
2021/04/15 08:40:21;;;;;;;2.72;1.80;;;8.30;99.90;;;;;;5073768;28;20064;-67
2021/04/15 08:43:05;;;;;;;2.78;1.70;;;8.30;99.90;;;;;;5072044;28;20055;-67
2021/04/15 08:46:00;;;;;;;6.40;1.25;;;8.40;99.90;;;;;;5064342;28;20059;-67
2021/04/15 08:48:33;;;;;;;1.27;1.13;;;8.40;99.90;;;;;;5064142;28;20040;-67
2021/04/15 08:51:36;;;;;;;4.07;1.38;;;8.60;99.90;;;;;;5071984;28;20123;-68
2021/04/15 08:54:25;;;;;;;3.30;1.00;;;8.60;99.90;;;;;;5069543;28;20500;-67
2021/04/15 08:57:22;;;;;;;3.00;1.60;;;8.80;99.90;;;;;;5071666;28;20131;-68
2021/04/15 09:00:13;;;;;;;2.45;1.45;;;8.80;99.90;;;;;;5072885;28;20020;-68
2021/04/15 09:02:56;;;;;;;2.65;1.67;;;8.50;99.90;;;;;;5066335;28;20090;-68
2021/04/15 09:05:30;;;;;;;4.38;1.38;;;8.50;99.90;;;;;;5071764;28;20055;-68
2021/04/15 09:08:07;;;;;;;1.92;1.10;;;8.50;99.90;;;;;;5075042;28;20400;-68
2021/04/15 09:10:42;;;;;;;4.53;1.35;;;8.50;99.90;;;;;;5069900;28;20481;-68
2021/04/15 09:13:31;;;;;;;3.85;1.52;;;8.30;99.90;;;;;;5068373;28;20021;-67
2021/04/15 09:16:25;;;;;;;4.15;1.42;;;8.50;99.90;;;;;;5068288;28;20040;-68
2021/04/15 09:19:05;;;;;;;2.72;1.35;;;8.80;99.90;;;;;;5074410;28;20024;-67
2021/04/15 09:21:53;;;;;;;2.75;1.30;;;9.10;99.90;;;;;;5063501;28;20028;-67
2021/04/15 09:24:49;;;;;;;3.20;1.25;;;9.10;99.90;;;;;;5074375;28;20066;-68
2021/04/15 09:27:41;;;;;;;3.17;1.30;;;9.20;99.90;;;;;;5073840;28;20108;-68
2021/04/15 09:30:25;;;;;;;3.03;1.48;;;9.40;99.90;;;;;;5062011;28;20477;-68
2021/04/15 09:33:02;;;;;;;2.53;1.25;;;9.60;99.90;;;;;;5063256;28;20489;-68
2021/04/15 09:35:58;;;;;;;3.75;1.35;;;9.70;99.90;;;;;;5068662;28;20019;-68
2021/04/15 09:38:34;;;;;;;1.75;1.27;;;9.60;99.90;;;;;;5060549;28;20024;-68
2021/04/15 09:41:13;;;;;;;2.83;1.50;;;9.60;99.90;;;;;;5070464;28;20038;-67
2021/04/15 09:43:39;;;;;;;3.08;1.50;;;9.60;99.90;;;;;;5060135;28;20025;-67
2021/04/15 09:46:09;;;;;;;1.55;1.45;;;9.60;99.90;;;;;;5067072;28;20032;-67
2021/04/15 09:48:41;;;;;;;3.53;1.05;;;9.70;99.90;;;;;;5065236;28;20848;-67
2021/04/15 09:51:15;;;;;;;2.97;1.33;;;9.50;99.90;;;;;;5064537;28;20033;-67
2021/04/15 09:54:05;;;;;;;3.47;1.48;;;9.90;99.90;;;;;;5066712;28;20033;-67
2021/04/15 09:56:31;;;;;;;4.05;1.52;;;9.90;99.90;;;;;;5067846;28;20036;-67
2021/04/15 09:59:34;;;;;;;3.42;1.67;;;10.00;99.90;;;;;;5068784;28;20032;-68
2021/04/15 10:02:08;;;;;;;2.53;1.30;;;10.20;99.90;;;;;;5065711;28;20067;-67
2021/04/15 10:04:51;;;;;;;2.55;1.42;;;9.90;99.90;;;;;;5067188;28;20244;-67
2021/04/15 10:07:26;;;;;;;3.50;1.15;;;10.30;99.90;;;;;;5067658;28;20036;-67
2021/04/15 10:10:25;;;;;;;4.25;1.50;;;10.40;99.90;;;;;;5071370;28;20373;-67
2021/04/15 10:13:02;;;;;;;1.40;1.10;;;10.40;99.90;;;;;;5073160;28;20589;-67
2021/04/15 10:15:40;;;;;;;5.55;1.05;;;10.60;99.90;;;;;;5073162;28;20052;-67
2021/04/15 10:18:35;;;;;;;1.88;1.10;;;10.70;99.90;;;;;;5073008;28;20564;-67
2021/04/15 10:21:25;;;;;;;4.78;1.50;;;10.50;99.90;;;;;;5074089;28;20024;-67
2021/04/15 10:24:14;;;;;;;4.53;1.30;;;10.60;99.90;;;;;;5074102;28;20021;-68
2021/04/15 10:27:04;;;;;;;4.38;1.35;;;10.70;99.90;;;;;;5079983;28;20024;-67
2021/04/15 10:29:54;;;;;;;3.20;1.50;;;10.60;99.90;;;;;;5070347;28;20017;-72
2021/04/15 10:32:38;;;;;;;4.28;1.25;;;10.70;99.90;;;;;;5075459;28;20036;-69
2021/04/15 10:35:14;;;;;;;5.22;1.20;;;10.50;99.90;;;;;;5063719;28;20506;-70
2021/04/15 10:37:57;;;;;;;3.75;1.30;;;10.60;99.90;;;;;;5071849;28;20032;-68
2021/04/15 10:40:31;;;;;;;2.53;1.35;;;10.80;99.90;;;;;;5073825;28;20465;-69
2021/04/15 10:43:29;;;;;;;1.17;1.00;;;11.00;99.90;;;;;;5069163;28;20024;-69
2021/04/15 10:46:13;;;;;;;3.70;1.25;;;10.90;99.90;;;;;;5062192;28;20035;-67
2021/04/15 10:49:15;;;;;;;1.88;1.17;;;10.80;99.90;;;;;;5071559;28;20074;-67
2021/04/15 10:52:18;;;;;;;1.83;1.23;;;10.40;99.90;;;;;;5068862;28;20117;-66
2021/04/15 10:54:45;;;;;;;2.35;1.40;;;10.30;99.90;;;;;;5075623;28;20318;-66
2021/04/15 10:57:22;;;;;;;1.95;1.35;;;10.30;99.90;;;;;;5076909;28;20020;-66
2021/04/15 10:59:49;;;;;;;3.45;1.42;;;10.10;99.90;;;;;;5072016;28;20024;-67
2021/04/15 11:02:46;;;;;;;4.20;1.17;;;10.20;99.90;;;;;;5066552;28;20070;-67
2021/04/15 11:05:45;;;;;;;3.03;1.10;;;10.20;99.90;;;;;;5069942;28;20043;-67
2021/04/15 11:08:31;;;;;;;3.08;1.58;;;10.10;99.90;;;;;;5073104;28;20064;-67
2021/04/15 11:11:13;;;;;;;5.65;1.30;;;10.30;99.90;;;;;;5064951;28;20522;-67
2021/04/15 11:13:39;;;;;;;2.45;1.40;;;10.40;99.90;;;;;;5067025;28;20090;-66
2021/04/15 11:16:18;;;;;;;1.52;1.30;;;10.30;99.90;;;;;;5068229;28;20032;-67
2021/04/15 11:18:44;;;;;;;7.03;1.38;;;10.20;99.90;;;;;;5071825;28;20016;-66
2021/04/15 11:21:21;;;;;;;4.53;1.50;;;10.50;99.90;;;;;;5064917;28;20035;-67
2021/04/15 11:23:49;;;;;;;2.53;1.08;;;10.50;99.90;;;;;;5072454;28;20165;-68
2021/04/15 11:26:26;;;;;;;4.75;1.20;;;10.60;99.90;;;;;;5069986;28;20029;-66
2021/04/15 11:28:58;;;;;;;3.50;1.50;;;10.50;99.90;;;;;;5074174;28;20020;-68
2021/04/15 11:31:38;;;;;;;4.50;1.30;;;10.50;99.90;;;;;;5073438;28;20457;-67
2021/04/15 11:34:08;;;;;;;3.25;1.00;;;10.60;99.90;;;;;;5070615;28;20063;-67
2021/04/15 11:36:38;;;;;;;5.20;1.15;;;10.60;99.90;;;;;;5066388;28;20033;-66
2021/04/15 11:39:03;;;;;;;2.88;1.02;;;10.60;99.90;;;;;;5070080;28;20077;-67
2021/04/15 11:41:30;;;;;;;3.33;1.00;;;10.60;99.90;;;;;;5066488;28;20032;-67
2021/04/15 11:44:06;;;;;;;3.75;1.85;;;10.70;99.90;;;;;;5071425;28;20483;-67
2021/04/15 11:46:48;;;;;;;4.45;1.25;;;10.60;99.90;;;;;;5075412;28;20062;-66
2021/04/15 11:49:33;;;;;;;2.55;1.30;;;10.70;99.90;;;;;;5066231;28;20028;-67
2021/04/15 11:52:09;;;;;;;3.25;1.52;;;10.90;99.90;;;;;;5072003;28;20511;-67
2021/04/15 11:54:38;;;;;;;3.65;1.77;;;10.80;99.90;;;;;;5066191;28;20411;-67
2021/04/15 11:57:30;;;;;;;3.72;1.60;;;10.70;99.90;;;;;;5063741;28;20491;-67
2021/04/15 11:59:55;;;;;;;3.08;1.80;;;10.60;99.90;;;;;;5061593;28;20400;-68
2021/04/15 12:02:45;;;;;;;3.00;1.35;;;10.60;99.90;;;;;;5065880;28;20103;-67
2021/04/15 12:05:14;;;;;;;1.50;1.40;;;11.10;99.90;;;;;;5067157;28;20020;-67
2021/04/15 12:07:45;;;;;;;2.20;1.40;;;11.60;99.90;;;;;;5066899;28;20103;-67
2021/04/15 12:10:14;;;;;;;3.92;1.30;;;11.70;99.90;;;;;;5068850;28;20037;-67
2021/04/15 12:12:42;;;;;;;2.15;1.10;;;11.60;99.90;;;;;;5069146;28;20115;-67
2021/04/15 12:15:16;;;;;;;2.85;1.60;;;11.40;99.90;;;;;;5069791;28;20399;-67
2021/04/15 12:17:51;;;;;;;3.78;1.35;;;11.20;99.90;;;;;;5064714;28;20177;-68
2021/04/15 12:20:37;;;;;;;2.08;1.02;;;11.10;99.90;;;;;;5068730;28;20020;-67
2021/04/15 12:23:24;;;;;;;1.60;0.98;;;11.20;99.90;;;;;;5069381;28;20376;-67
2021/04/15 12:26:21;;;;;;;2.90;1.50;;;11.20;99.90;;;;;;5064810;28;20063;-67
2021/04/15 12:29:07;;;;;;;2.33;1.30;;;11.50;99.90;;;;;;5062658;28;20562;-67
2021/04/15 12:31:47;;;;;;;3.80;1.77;;;11.40;99.90;;;;;;5070420;28;20037;-67
2021/04/15 12:34:35;;;;;;;3.38;1.55;;;11.20;99.90;;;;;;5073228;28;20509;-68
2021/04/15 12:37:03;;;;;;;2.13;1.90;;;11.20;99.90;;;;;;5067764;28;20443;-67
2021/04/15 12:39:49;;;;;;;2.58;2.10;;;11.00;99.90;;;;;;5064318;28;20451;-67
2021/04/15 12:42:17;;;;;;;4.10;2.10;;;10.90;99.90;;;;;;5077772;28;20042;-67
2021/04/15 12:44:43;;;;;;;3.72;1.83;;;10.90;99.90;;;;;;5075122;28;20058;-67
2021/04/15 12:47:10;;;;;;;2.63;1.98;;;10.80;99.90;;;;;;5073246;28;20025;-67
2021/04/15 12:49:36;;;;;;;2.42;1.90;;;10.80;99.90;;;;;;5070957;28;20039;-68
2021/04/15 12:52:12;;;;;;;3.75;1.50;;;10.90;99.90;;;;;;5062123;28;20558;-69
2021/04/15 12:54:39;;;;;;;4.10;2.00;;;10.70;99.90;;;;;;5069701;28;20031;-69
2021/04/15 12:57:08;;;;;;;2.53;1.70;;;10.80;99.90;;;;;;5063911;28;20039;-70
2021/04/15 12:59:37;;;;;;;2.17;1.63;;;11.00;99.90;;;;;;5065140;28;20111;-70
2021/04/15 13:02:09;;;;;;;3.40;1.33;;;11.30;99.90;;;;;;5073574;28;20139;-70
2021/04/15 13:04:35;;;;;;;2.20;1.20;;;11.40;99.90;;;;;;5066212;28;20051;-68
2021/04/15 13:07:00;;;;;;;2.63;1.20;;;11.60;99.90;;;;;;5071243;28;20024;-71
2021/04/15 13:10:12;;;;;;;1.52;1.42;;;11.50;99.80;;;;;;5065074;28;20032;-69
2021/04/15 13:12:42;;;;;;;2.85;1.50;;;11.30;99.90;;;;;;5066108;28;20150;-70
2021/04/15 13:15:28;;;;;;;2.10;1.38;;;11.40;99.20;;;;;;5062527;28;20039;-71
2021/04/15 13:17:58;;;;;;;4.10;1.52;;;11.70;99.90;;;;;;5070090;28;20024;-70
2021/04/15 13:20:24;;;;;;;1.90;1.40;;;11.80;99.00;;;;;;5064540;28;20102;-71
2021/04/15 13:23:13;;;;;;;1.30;0.85;;;11.90;99.90;;;;;;5072925;28;20504;-69
2021/04/15 13:25:51;;;;;;;2.22;1.02;;;12.00;98.00;;;;;;5062613;28;20515;-69
2021/04/15 13:28:25;;;;;;;2.03;1.02;;;12.30;96.30;;;;;;5064911;28;20052;-70
2021/04/15 13:30:58;;;;;;;2.47;1.40;;;12.50;97.40;;;;;;5061629;28;20101;-67
2021/04/15 13:34:04;;;;;;;1.20;1.10;;;12.40;96.40;;;;;;5065351;28;20073;-69
2021/04/15 13:36:30;;;;;;;6.47;1.45;;;12.10;96.00;;;;;;5062919;28;20024;-68
2021/04/15 13:39:02;;;;;;;3.40;1.80;;;11.90;96.10;;;;;;5072121;28;20107;-67
2021/04/15 13:41:28;;;;;;;2.97;2.10;;;11.80;99.20;;;;;;5070201;28;20020;-66
2021/04/15 13:44:01;;;;;;;7.30;1.88;;;11.70;99.90;;;;;;5066198;28;20294;-68
2021/04/15 13:46:37;;;;;;;2.90;2.33;;;11.70;99.90;;;;;;5069868;28;20020;-68
2021/04/15 13:49:08;;;;;;;4.30;2.22;;;11.50;99.90;;;;;;5069750;28;20421;-67